Ana Sayfa
METAR-TAF:

METAR-TAF

Havaalanları :

Xi'an Xianyang Uluslararası Havalimanı

Xi'an, Çin

Enlem: 34-26N, Boylam: 108-45E, yükseklik: 479 m

Güncel hava durumu gözlemi

Rapor saat 17:00 UTC de 1 saat ve 2 dakika önce yapıldı.
Rüzgar kuzeydoğudan 4 kt
Sıcaklık 6°C
Nem 70%
Basınç 1016 hPa
Görüş mesafesi: 7000 m

METAR: ZLXY 241700Z 05002MPS 7000 NSC 06/01 Q1016 NOSIG

Saat: 02:02 (18:02 UTC)

Tahmin

Rapor saat 15:05 UTC de 2 saat ve 57 dakika önce yapıldı.
Ayın 24'si saat 18 UTC'den ayın 25'si saat 18 UTC'ye kadar geçerli Tahmin
Rüzgar doğu/kuzeydoğudan 6 kt
Görüş mesafesi: 3000 m
Toz Pusu

TAF: ZLXY 241505Z 2418/2518 06003MPS 3000 HZ NSC TX19/2508Z TN02/2422Z

4.000'den fazla havaalanı için hava durumu gözlemleri ve tahminleri (METAR ve TAF raporları).

Kullanılabilir istasyonlar harita üzerinde sarı ve kırmızı noktalarla gösterilir.

İstasyonun adını görmek için fareyi noktanın üzerinde gezdirin.

Sonrasında hava gözlem ve tahminlerini görmek için tıklayın.

Haritayı değiştirmek için: yaklaştırmak için siyah artı işaretli yeşil düğmeye ve uzaklaştırmak için de eksi işaretli düğmeye hızla tıklayın; bitişik haritalar için yeşil okları kullanın.


METAR-TAF: